CPX664 Details

Departure: Palm Beach International Airport (KPBI)
Arrival: Miami International Airport (KMIA) at N/A
Route: BUFIT2 HILEY HILEY7
Notes:


Current Weather Information
KPBI 231353Z 33005KT 10SM SCT035CB BKN045 BKN065 28/24 A3002 RMK AO2 SLP164 CB NE MOV SW T02780244 $
KMIA 231353Z 12008KT 10SM FEW010 FEW022 SCT250 30/23 A3001 RMK AO2 SLP162 T03000233